Time;durP1;ratioP1;P1;durP2;ratioP2;P2;SDS_P1;SDS_P2;PMS_P1;PMS_P2;Temp;Humidity;BMP_temperature;BMP_pressure;BME280_temperature;BME280_humidity;BME280_pressure;Samples;Min_cycle;Max_cycle;Signal;HPM_P1;HPM_P2
2023/06/15 00:00:25;;;;;;;4.60;3.57;;;;;;;17.45;60.61;97980.84;5060421;28;20211;-76
2023/06/15 00:02:52;;;;;;;4.47;3.67;;;;;;;17.36;60.73;97981.56;5053744;28;20281;-76
2023/06/15 00:05:18;;;;;;;5.00;3.50;;;;;;;17.35;59.81;97979.97;5053516;28;20200;-76
2023/06/15 00:07:45;;;;;;;6.97;3.67;;;;;;;17.30;60.40;97986.13;5054456;28;20205;-76
2023/06/15 00:10:11;;;;;;;3.90;3.50;;;;;;;17.29;60.52;97978.34;5055419;28;20205;-76
2023/06/15 00:12:38;;;;;;;4.63;3.90;;;;;;;17.27;60.98;97985.81;5056017;28;20283;-76
2023/06/15 00:15:05;;;;;;;3.80;3.50;;;;;;;17.20;60.37;97980.69;5056033;28;20231;-76
2023/06/15 00:17:32;;;;;;;4.17;3.47;;;;;;;17.29;60.58;97983.69;5072176;28;20265;-76
2023/06/15 00:20:00;;;;;;;5.53;4.07;;;;;;;17.31;60.40;97981.53;5066765;28;20652;-76
2023/06/15 00:22:28;;;;;;;5.07;3.30;;;;;;;17.27;61.08;97989.34;5065838;28;20243;-76
2023/06/15 00:24:55;;;;;;;4.67;3.50;;;;;;;17.25;60.58;97987.97;5060919;28;20270;-76
2023/06/15 00:27:21;;;;;;;4.20;3.77;;;;;;;17.27;60.83;97993.88;5069603;28;20233;-76
2023/06/15 00:29:48;;;;;;;4.13;3.70;;;;;;;17.20;60.91;97990.66;5055392;28;20209;-76
2023/06/15 00:32:14;;;;;;;4.10;3.77;;;;;;;17.18;60.01;97998.97;5053920;28;20201;-76
2023/06/15 00:34:40;;;;;;;4.97;3.80;;;;;;;17.14;59.89;98005.94;5071847;28;20224;-76
2023/06/15 00:37:07;;;;;;;7.03;3.83;;;;;;;17.15;61.41;98001.38;5057299;28;20225;-76
2023/06/15 00:39:33;;;;;;;4.53;4.13;;;;;;;17.10;62.14;98004.03;5055729;28;20208;-76
2023/06/15 00:42:00;;;;;;;5.20;3.80;;;;;;;17.01;61.23;98006.41;5054968;28;20575;-76
2023/06/15 00:44:26;;;;;;;4.03;3.67;;;;;;;16.93;62.39;98004.22;5060519;28;20200;-76
2023/06/15 00:46:52;;;;;;;4.77;4.10;;;;;;;16.81;63.00;97998.25;5050759;28;20577;-76
2023/06/15 00:49:21;;;;;;;6.47;4.10;;;;;;;16.77;63.88;98002.50;5052051;28;20567;-76
2023/06/15 00:51:48;;;;;;;6.23;3.97;;;;;;;16.64;63.97;98004.84;5060258;28;20205;-76
2023/06/15 00:54:21;;;;;;;6.10;4.30;;;;;;;16.72;63.17;98005.16;5057732;28;20566;-76
2023/06/15 00:56:48;;;;;;;6.13;3.57;;;;;;;16.72;63.54;98009.72;5062082;28;20231;-76
2023/06/15 00:59:14;;;;;;;4.93;3.70;;;;;;;16.78;63.03;98006.81;5063218;28;20224;-76
2023/06/15 01:01:42;;;;;;;7.03;4.00;;;;;;;16.68;64.48;98008.63;5053297;28;20282;-76
2023/06/15 01:04:08;;;;;;;5.57;3.90;;;;;;;16.74;63.55;98003.03;5070001;28;20259;-76
2023/06/15 01:06:41;;;;;;;6.00;4.20;;;;;;;16.78;63.05;98003.34;5056963;28;20691;-76
2023/06/15 01:09:10;;;;;;;3.93;3.53;;;;;;;16.78;64.12;98008.69;5054948;28;20205;-76
2023/06/15 01:11:38;;;;;;;4.27;3.87;;;;;;;16.74;63.41;98002.22;5058547;28;20200;-76
2023/06/15 01:14:06;;;;;;;4.10;3.80;;;;;;;16.69;64.29;98000.31;5070143;28;20229;-76
2023/06/15 01:16:38;;;;;;;4.47;3.87;;;;;;;16.76;62.91;98008.97;5066625;28;20228;-76
2023/06/15 01:19:09;;;;;;;6.13;3.80;;;;;;;16.61;64.79;98003.47;5059234;28;20209;-76
2023/06/15 01:21:37;;;;;;;4.40;3.57;;;;;;;16.57;63.88;98002.41;5055896;28;20193;-76
2023/06/15 01:24:09;;;;;;;4.27;3.60;;;;;;;16.69;63.61;98000.31;5056414;28;20217;-76
2023/06/15 01:26:38;;;;;;;4.70;3.93;;;;;;;16.50;65.21;98000.97;5064621;28;20232;-76
2023/06/15 01:29:06;;;;;;;4.70;3.73;;;;;;;16.39;65.56;98005.44;5057431;28;20228;-76
2023/06/15 01:31:32;;;;;;;4.00;3.60;;;;;;;16.55;62.78;97999.13;5073551;28;20312;-76
2023/06/15 01:34:00;;;;;;;4.00;3.60;;;;;;;16.53;63.53;98006.66;5071851;28;20216;-76
2023/06/15 01:36:27;;;;;;;4.23;3.67;;;;;;;16.63;62.48;98006.72;5058965;28;20591;-76
2023/06/15 01:38:57;;;;;;;4.07;3.67;;;;;;;16.67;61.65;98005.13;5076334;28;20204;-76
2023/06/15 01:41:25;;;;;;;5.77;3.80;;;;;;;16.65;62.43;98003.78;5070833;28;20205;-76
2023/06/15 01:43:52;;;;;;;6.67;3.50;;;;;;;16.63;63.52;98005.91;5065359;28;20676;-76
2023/06/15 01:46:22;;;;;;;4.47;3.53;;;;;;;16.62;62.74;98001.59;5064015;28;20224;-76
2023/06/15 01:48:49;;;;;;;3.57;3.27;;;;;;;16.61;61.57;98000.78;5077083;28;20209;-76
2023/06/15 01:51:17;;;;;;;4.00;3.60;;;;;;;16.58;62.14;97995.94;5065091;28;20219;-76
2023/06/15 01:53:44;;;;;;;3.70;3.40;;;;;;;16.56;62.38;98000.75;5066736;28;20209;-76
2023/06/15 01:56:11;;;;;;;5.07;3.30;;;;;;;16.38;63.42;97998.44;5072736;28;20256;-76
2023/06/15 01:58:37;;;;;;;4.07;3.67;;;;;;;16.43;63.57;98001.22;5076900;28;20212;-76
2023/06/15 02:01:03;;;;;;;4.53;3.90;;;;;;;16.42;63.94;98004.16;5069635;28;20610;-76
2023/06/15 02:03:31;;;;;;;4.00;3.60;;;;;;;16.32;64.29;98002.16;5062332;28;20200;-76
2023/06/15 02:05:57;;;;;;;4.47;3.80;;;;;;;16.34;63.68;98008.09;5075840;28;20262;-76
2023/06/15 02:08:24;;;;;;;4.30;3.90;;;;;;;16.36;65.43;98007.81;5075832;28;20261;-76
2023/06/15 02:10:50;;;;;;;4.87;3.80;;;;;;;16.33;66.98;98005.66;5055510;28;20209;-76
2023/06/15 02:13:18;;;;;;;4.13;3.73;;;;;;;16.25;67.28;98009.63;5056828;28;20209;-76
2023/06/15 02:15:44;;;;;;;4.90;3.87;;;;;;;16.08;68.88;98008.13;5066343;28;20236;-76
2023/06/15 02:18:14;;;;;;;4.40;4.00;;;;;;;15.98;67.36;98008.84;5058029;28;20208;-76
2023/06/15 02:20:44;;;;;;;4.30;3.90;;;;;;;15.96;67.42;98007.50;5060016;28;20254;-76
2023/06/15 02:23:11;;;;;;;5.13;3.77;;;;;;;15.87;69.62;98001.75;5065452;28;20212;-76
2023/06/15 02:25:38;;;;;;;5.00;4.10;;;;;;;15.82;69.49;98004.41;5074391;28;20583;-76
2023/06/15 02:28:05;;;;;;;4.13;3.77;;;;;;;15.75;69.98;98001.09;5064981;28;20211;-76
2023/06/15 02:30:31;;;;;;;4.60;4.10;;;;;;;15.59;70.93;97998.50;5065253;28;20204;-76
2023/06/15 02:33:00;;;;;;;7.27;4.00;;;;;;;15.48;72.35;98002.97;5059649;28;20205;-76
2023/06/15 02:35:27;;;;;;;4.43;3.80;;;;;;;15.39;71.67;97996.44;5059451;28;20229;-76
2023/06/15 02:37:53;;;;;;;4.57;4.00;;;;;;;15.34;73.40;98006.28;5070579;28;20576;-76
2023/06/15 02:40:20;;;;;;;5.00;4.00;;;;;;;15.28;73.20;97996.53;5073293;28;20212;-76
2023/06/15 02:42:46;;;;;;;4.13;3.80;;;;;;;15.26;73.22;97999.47;5062073;28;20209;-76
2023/06/15 02:45:12;;;;;;;6.97;4.00;;;;;;;15.34;72.37;97999.03;5075991;28;20212;-76
2023/06/15 02:47:39;;;;;;;5.67;4.10;;;;;;;15.31;73.86;98001.38;5058421;28;20726;-76
2023/06/15 02:50:06;;;;;;;4.77;3.93;;;;;;;15.26;73.51;98009.34;5075202;28;20225;-76
2023/06/15 02:52:33;;;;;;;6.63;4.03;;;;;;;15.35;73.83;98006.03;5062708;28;20216;-76
2023/06/15 02:55:00;;;;;;;4.73;4.33;;;;;;;15.23;74.48;98008.00;5062353;28;20224;-76
2023/06/15 02:57:27;;;;;;;4.40;4.00;;;;;;;15.23;74.51;98005.31;5057360;28;20712;-76
2023/06/15 02:59:54;;;;;;;5.63;4.07;;;;;;;15.32;73.19;98009.16;5055802;28;20209;-76
2023/06/15 03:02:21;;;;;;;5.67;3.80;;;;;;;15.31;72.68;98010.22;5058847;28;20200;-76
2023/06/15 03:04:50;;;;;;;5.13;4.03;;;;;;;15.28;72.51;98013.41;5067897;28;20201;-76
2023/06/15 03:07:17;;;;;;;5.10;3.80;;;;;;;15.29;72.96;98020.38;5058139;28;20221;-76
2023/06/15 03:09:47;;;;;;;5.17;4.50;;;;;;;15.32;72.56;98019.88;5054912;28;20205;-76
2023/06/15 03:12:14;;;;;;;5.17;4.00;;;;;;;15.36;72.49;98015.69;5068575;28;20193;-76
2023/06/15 03:14:44;;;;;;;6.50;4.13;;;;;;;15.30;73.73;98019.34;5075288;28;20231;-76
2023/06/15 03:17:12;;;;;;;4.53;4.13;;;;;;;15.26;72.82;98026.25;5073296;28;20232;-76
2023/06/15 03:19:39;;;;;;;4.83;3.90;;;;;;;15.25;72.05;98018.47;5065507;28;20209;-76
2023/06/15 03:22:07;;;;;;;4.13;3.83;;;;;;;15.30;71.81;98016.66;5057014;28;20220;-76
2023/06/15 03:24:34;;;;;;;6.00;4.13;;;;;;;15.27;71.45;98019.81;5064070;28;20241;-76
2023/06/15 03:27:03;;;;;;;6.60;3.57;;;;;;;15.32;71.46;98030.59;5072847;28;20232;-76
2023/06/15 03:29:31;;;;;;;4.53;4.03;;;;;;;15.37;73.28;98024.53;5074182;28;20209;-76
2023/06/15 03:31:59;;;;;;;4.20;3.80;;;;;;;15.35;73.63;98022.09;5061704;28;20266;-76
2023/06/15 03:34:25;;;;;;;5.00;4.07;;;;;;;15.23;74.15;98024.06;5061490;28;20229;-76
2023/06/15 03:36:53;;;;;;;4.37;3.97;;;;;;;15.23;73.34;98026.75;5062501;28;20738;-76
2023/06/15 03:39:20;;;;;;;4.70;4.23;;;;;;;15.19;73.76;98024.81;5058518;28;20577;-76
2023/06/15 03:41:46;;;;;;;7.87;3.83;;;;;;;15.34;73.53;98027.72;5056410;28;20395;-76
2023/06/15 03:44:13;;;;;;;5.30;4.10;;;;;;;15.29;75.26;98025.72;5072683;28;20227;-76
2023/06/15 03:46:41;;;;;;;6.13;3.80;;;;;;;15.47;73.15;98030.81;5055811;28;20225;-76
2023/06/15 03:49:07;;;;;;;5.70;4.00;;;;;;;15.54;71.06;98039.47;5053924;28;20237;-76
2023/06/15 03:51:34;;;;;;;4.30;3.90;;;;;;;15.59;70.39;98038.72;5072187;28;20212;-76
2023/06/15 03:54:00;;;;;;;4.37;3.97;;;;;;;15.63;70.10;98039.81;5073552;28;20205;-76
2023/06/15 03:56:26;;;;;;;4.87;3.67;;;;;;;15.70;70.38;98049.28;5065105;28;20301;-76
2023/06/15 03:58:53;;;;;;;5.50;4.40;;;;;;;15.72;70.67;98051.72;5065534;28;20212;-76
2023/06/15 04:01:22;;;;;;;7.23;4.10;;;;;;;15.82;69.55;98047.28;5059041;28;20220;-76
2023/06/15 04:03:48;;;;;;;5.00;3.80;;;;;;;15.79;68.87;98042.41;5058189;28;20741;-76
2023/06/15 04:06:16;;;;;;;4.33;3.90;;;;;;;15.75;69.04;98056.59;5069604;28;20228;-76
2023/06/15 04:08:43;;;;;;;5.13;3.97;;;;;;;15.85;69.57;98052.16;5054815;28;20205;-76
2023/06/15 04:11:10;;;;;;;5.83;4.00;;;;;;;16.00;67.24;98052.28;5059040;28;20243;-76
2023/06/15 04:13:36;;;;;;;4.30;3.90;;;;;;;16.02;67.23;98054.72;5072750;28;20568;-76
2023/06/15 04:16:02;;;;;;;3.93;3.50;;;;;;;15.84;67.43;98066.59;5073113;28;20233;-76
2023/06/15 04:18:29;;;;;;;3.97;3.67;;;;;;;15.89;67.60;98068.53;5053745;28;20205;-76
2023/06/15 04:20:55;;;;;;;5.93;4.10;;;;;;;15.81;68.02;98077.84;5063580;28;20208;-76
2023/06/15 04:23:22;;;;;;;5.63;3.70;;;;;;;16.04;67.83;98076.72;5072687;28;20217;-76
2023/06/15 04:25:48;;;;;;;4.30;3.90;;;;;;;16.08;67.64;98073.31;5066804;28;20221;-76
2023/06/15 04:28:16;;;;;;;4.70;4.20;;;;;;;16.00;67.45;98075.59;5061042;28;20628;-76
2023/06/15 04:30:45;;;;;;;6.10;4.27;;;;;;;16.03;67.41;98075.13;5072880;28;20201;-76
2023/06/15 04:33:13;;;;;;;5.17;4.33;;;;;;;16.21;66.74;98082.81;5066564;28;20198;-76
2023/06/15 04:35:45;;;;;;;5.33;4.33;;;;;;;16.32;67.21;98082.66;5056905;28;20688;-76
2023/06/15 04:38:12;;;;;;;5.83;4.20;;;;;;;16.33;66.77;98084.25;5065934;28;20667;-76
2023/06/15 04:40:41;;;;;;;5.80;4.27;;;;;;;16.46;65.82;98089.25;5069737;28;20212;-76
2023/06/15 04:43:07;;;;;;;4.90;4.40;;;;;;;16.32;65.80;98084.50;5074175;28;20208;-76
2023/06/15 04:45:35;;;;;;;5.37;4.33;;;;;;;16.20;66.53;98087.34;5072919;28;20235;-76
2023/06/15 04:48:01;;;;;;;6.83;3.90;;;;;;;16.40;66.21;98086.75;5057832;28;20209;-76
2023/06/15 04:50:29;;;;;;;8.80;4.70;;;;;;;16.41;66.78;98091.06;5054127;28;20660;-76
2023/06/15 04:52:56;;;;;;;4.57;4.10;;;;;;;16.49;66.80;98085.25;5053320;28;20212;-76
2023/06/15 04:55:23;;;;;;;5.07;4.43;;;;;;;16.52;66.55;98090.91;5060660;28;20606;-76
2023/06/15 04:57:49;;;;;;;5.27;4.13;;;;;;;16.57;65.90;98092.81;5059020;28;20231;-76
2023/06/15 05:00:16;;;;;;;7.97;4.57;;;;;;;16.63;67.17;98100.66;5072191;28;20215;-76
2023/06/15 05:02:43;;;;;;;7.33;3.97;;;;;;;16.80;66.28;98093.28;5073149;28;20216;-76
2023/06/15 05:05:12;;;;;;;6.87;4.27;;;;;;;16.95;65.13;98097.94;5068508;28;20558;-76
2023/06/15 05:07:38;;;;;;;7.47;4.23;;;;;;;17.21;64.64;98099.72;5062678;28;20221;-76
2023/06/15 05:10:07;;;;;;;7.33;4.50;;;;;;;17.60;64.07;98099.16;5055740;28;20208;-76
2023/06/15 05:12:33;;;;;;;6.47;3.97;;;;;;;17.98;61.77;98096.09;5063393;28;20254;-76
2023/06/15 05:15:00;;;;;;;6.47;4.20;;;;;;;18.43;59.79;98098.06;5068837;28;20583;-76
2023/06/15 05:17:26;;;;;;;5.87;4.17;;;;;;;19.09;57.15;98100.47;5053001;28;20735;-76
2023/06/15 05:19:52;;;;;;;4.90;4.20;;;;;;;19.49;54.81;98102.31;5051832;28;20201;-76
2023/06/15 05:22:19;;;;;;;4.67;4.10;;;;;;;20.11;52.80;98101.81;5052081;28;20724;-76
2023/06/15 05:24:45;;;;;;;5.13;3.90;;;;;;;20.28;51.24;98099.53;5052115;28;20718;-76
2023/06/15 05:27:12;;;;;;;5.57;4.20;;;;;;;19.53;51.98;98106.06;5051638;28;20684;-76
2023/06/15 05:29:39;;;;;;;4.53;4.00;;;;;;;19.77;53.79;98097.06;5056283;28;20229;-76
2023/06/15 05:32:06;;;;;;;4.60;4.13;;;;;;;18.87;54.97;98105.34;5061687;28;20593;-76
2023/06/15 05:34:32;;;;;;;4.20;3.80;;;;;;;18.89;56.63;98111.28;5056149;28;20201;-76
2023/06/15 05:36:59;;;;;;;7.57;3.80;;;;;;;18.99;56.18;98107.75;5052870;28;20236;-76
2023/06/15 05:39:25;;;;;;;4.40;4.00;;;;;;;18.53;57.37;98109.66;5055912;28;20201;-76
2023/06/15 05:41:52;;;;;;;3.93;3.60;;;;;;;18.54;58.57;98110.47;5061688;28;20275;-76
2023/06/15 05:44:18;;;;;;;3.77;3.43;;;;;;;18.46;58.52;98111.81;5052754;28;20209;-76
2023/06/15 05:46:44;;;;;;;4.30;3.90;;;;;;;18.59;57.88;98113.97;5062431;28;20221;-76
2023/06/15 05:49:11;;;;;;;5.37;3.63;;;;;;;18.47;57.26;98108.06;5063854;28;20205;-76
2023/06/15 05:51:37;;;;;;;4.10;3.70;;;;;;;18.43;56.94;98119.63;5063133;28;20259;-76
2023/06/15 05:54:04;;;;;;;4.17;3.80;;;;;;;18.49;57.72;98118.53;5053870;28;20213;-76
2023/06/15 05:56:31;;;;;;;5.33;3.90;;;;;;;18.69;56.46;98123.97;5069358;28;20224;-76
2023/06/15 05:58:57;;;;;;;5.40;3.60;;;;;;;18.56;58.31;98127.19;5059134;28;20211;-76
2023/06/15 06:01:23;;;;;;;4.33;3.90;;;;;;;18.56;58.63;98122.59;5064360;28;20212;-76
2023/06/15 06:03:50;;;;;;;4.67;3.67;;;;;;;18.64;58.28;98126.66;5071506;28;20209;-76
2023/06/15 06:06:16;;;;;;;6.37;4.03;;;;;;;18.61;57.63;98128.00;5055905;28;20225;-76
2023/06/15 06:08:42;;;;;;;4.27;3.67;;;;;;;18.62;56.70;98129.59;5051871;28;20212;-76
2023/06/15 06:11:09;;;;;;;3.93;3.63;;;;;;;18.78;55.18;98125.03;5066134;28;20208;-76
2023/06/15 06:13:36;;;;;;;4.43;3.50;;;;;;;18.72;57.00;98136.88;5071705;28;20255;-76
2023/06/15 06:16:03;;;;;;;3.67;3.27;;;;;;;18.78;55.70;98131.22;5055971;28;20229;-76
2023/06/15 06:18:29;;;;;;;3.80;3.50;;;;;;;18.79;56.14;98132.84;5057894;28;20201;-76
2023/06/15 06:20:56;;;;;;;3.93;3.63;;;;;;;18.82;55.76;98145.75;5073241;28;20204;-76
2023/06/15 06:23:22;;;;;;;3.83;3.53;;;;;;;18.99;56.13;98138.22;5074737;28;20219;-76
2023/06/15 06:25:48;;;;;;;4.50;3.70;;;;;;;18.97;56.23;98136.88;5070559;28;20220;-76
2023/06/15 06:28:15;;;;;;;4.60;3.83;;;;;;;19.04;54.98;98143.59;5070791;28;20201;-76
2023/06/15 06:30:41;;;;;;;4.03;3.60;;;;;;;19.08;54.96;98143.88;5067664;28;20205;-76
2023/06/15 06:33:08;;;;;;;5.50;4.07;;;;;;;19.02;54.90;98143.09;5063926;28;20292;-76
2023/06/15 06:35:34;;;;;;;6.60;4.23;;;;;;;19.19;54.27;98137.41;5060869;28;20328;-76
2023/06/15 06:38:01;;;;;;;5.47;3.83;;;;;;;19.02;57.44;98143.09;5064564;28;20672;-76
2023/06/15 06:40:27;;;;;;;4.10;3.70;;;;;;;19.19;57.24;98143.59;5058363;28;20255;-76
2023/06/15 06:42:54;;;;;;;4.27;3.87;;;;;;;19.19;55.85;98146.28;5073319;28;20330;-76
2023/06/15 06:45:20;;;;;;;6.37;4.03;;;;;;;19.41;54.41;98143.34;5064106;28;20200;-76
2023/06/15 06:47:46;;;;;;;5.80;4.03;;;;;;;19.04;56.15;98151.69;5066511;28;20208;-76
2023/06/15 06:50:13;;;;;;;4.83;4.07;;;;;;;19.08;57.41;98144.69;5073540;28;20596;-76
2023/06/15 06:52:42;;;;;;;7.60;4.17;;;;;;;19.07;56.51;98148.47;5055756;28;20565;-76
2023/06/15 06:55:09;;;;;;;6.40;4.50;;;;;;;19.16;56.40;98141.44;5056847;28;20232;-76
2023/06/15 06:57:36;;;;;;;4.83;4.17;;;;;;;19.57;56.24;98147.59;5067701;28;20228;-76
2023/06/15 07:00:04;;;;;;;6.30;4.07;;;;;;;19.25;55.39;98147.13;5056728;28;20215;-76
2023/06/15 07:02:32;;;;;;;4.50;4.10;;;;;;;19.33;56.26;98146.56;5067655;28;20227;-76
2023/06/15 07:04:58;;;;;;;5.20;4.10;;;;;;;19.28;55.69;98154.69;5074002;28;20668;-76
2023/06/15 07:07:25;;;;;;;5.60;3.60;;;;;;;19.46;56.75;98162.97;5067696;28;20307;-76
2023/06/15 07:09:51;;;;;;;6.63;4.03;;;;;;;19.31;55.49;98154.94;5075195;28;20208;-76
2023/06/15 07:12:17;;;;;;;5.93;4.13;;;;;;;19.45;56.48;98155.97;5059941;28;20656;-76
2023/06/15 07:14:44;;;;;;;4.60;4.23;;;;;;;18.64;57.23;98158.97;5074372;28;20694;-76
2023/06/15 07:17:10;;;;;;;6.67;4.73;;;;;;;18.90;57.69;98158.69;5059992;28;20225;-76
2023/06/15 07:19:36;;;;;;;5.10;4.30;;;;;;;19.31;56.99;98154.94;5054343;28;20211;-76
2023/06/15 07:22:03;;;;;;;6.03;4.00;;;;;;;19.58;55.89;98155.41;5056568;28;20213;-75
2023/06/15 07:24:29;;;;;;;4.37;3.97;;;;;;;19.02;56.55;98153.88;5054316;28;20209;-76
2023/06/15 07:26:56;;;;;;;5.13;4.33;;;;;;;19.21;57.03;98154.91;5066666;28;20573;-76
2023/06/15 07:29:22;;;;;;;5.97;4.20;;;;;;;19.57;56.33;98155.69;5058102;28;20224;-76
2023/06/15 07:31:48;;;;;;;6.83;3.93;;;;;;;19.96;56.07;98151.25;5070470;28;20208;-75
2023/06/15 07:34:15;;;;;;;6.17;4.03;;;;;;;19.94;54.70;98152.59;5068952;28;20208;-76
2023/06/15 07:36:41;;;;;;;6.73;4.10;;;;;;;20.01;53.79;98151.22;5055148;28;20221;-76
2023/06/15 07:39:07;;;;;;;6.83;4.00;;;;;;;20.14;55.23;98144.44;5056230;28;20212;-75
2023/06/15 07:41:34;;;;;;;6.47;3.93;;;;;;;20.00;55.12;98154.19;5054476;28;20698;-76
2023/06/15 07:44:00;;;;;;;4.73;4.03;;;;;;;20.23;54.65;98145.47;5054610;28;20201;-76
2023/06/15 07:46:26;;;;;;;5.67;4.23;;;;;;;20.34;54.86;98149.75;5054264;28;20231;-75
2023/06/15 07:48:53;;;;;;;7.97;4.47;;;;;;;20.34;53.56;98147.84;5058355;28;20212;-76
2023/06/15 07:51:19;;;;;;;4.43;3.77;;;;;;;20.44;54.27;98149.69;5054410;28;20201;-76
2023/06/15 07:53:46;;;;;;;6.13;4.00;;;;;;;20.38;53.11;98153.47;5054655;28;20208;-76
2023/06/15 07:56:13;;;;;;;4.37;3.73;;;;;;;20.42;55.91;98141.03;5054353;28;20229;-76
2023/06/15 07:58:39;;;;;;;5.93;3.80;;;;;;;20.63;53.55;98150.63;5069595;28;20208;-76
2023/06/15 08:01:06;;;;;;;4.47;3.80;;;;;;;20.61;52.70;98144.72;5061844;28;20205;-76
2023/06/15 08:03:32;;;;;;;4.67;4.23;;;;;;;20.82;53.27;98141.56;5054081;28;20205;-76
2023/06/15 08:05:58;;;;;;;5.03;3.90;;;;;;;21.17;50.97;98148.63;5053883;28;20243;-76
2023/06/15 08:08:25;;;;;;;3.93;3.57;;;;;;;21.19;50.67;98147.22;5055312;28;20204;-76
2023/06/15 08:10:51;;;;;;;5.20;3.60;;;;;;;20.90;50.64;98140.16;5054470;28;20212;-76
2023/06/15 08:13:20;;;;;;;3.93;3.33;;;;;;;21.13;50.69;98142.97;5055448;28;20217;-76
2023/06/15 08:15:47;;;;;;;5.33;3.87;;;;;;;21.28;50.76;98147.41;5053657;28;20596;-76
2023/06/15 08:18:13;;;;;;;5.17;4.03;;;;;;;21.43;49.81;98141.88;5054763;28;20576;-76
2023/06/15 08:20:40;;;;;;;4.70;3.87;;;;;;;20.96;49.81;98139.06;5054215;28;20284;-76
2023/06/15 08:23:06;;;;;;;4.97;3.80;;;;;;;21.17;52.35;98145.91;5065814;28;20222;-76
2023/06/15 08:25:34;;;;;;;3.90;3.60;;;;;;;21.38;50.45;98144.63;5071763;28;20247;-76
2023/06/15 08:28:01;;;;;;;5.83;3.93;;;;;;;21.66;49.86;98144.56;5067513;28;20224;-76
2023/06/15 08:30:28;;;;;;;4.23;3.83;;;;;;;21.57;48.97;98140.09;5065077;28;20213;-76
2023/06/15 08:32:54;;;;;;;3.93;3.63;;;;;;;21.59;49.91;98138.72;5053870;28;20216;-76
2023/06/15 08:35:21;;;;;;;5.47;3.97;;;;;;;21.98;49.54;98141.28;5053085;28;20217;-75
2023/06/15 08:37:47;;;;;;;3.80;3.50;;;;;;;21.65;46.88;98139.44;5056156;28;20700;-76
2023/06/15 08:40:13;;;;;;;3.97;3.60;;;;;;;21.67;48.59;98135.38;5058186;28;20216;-76
2023/06/15 08:42:41;;;;;;;6.60;3.60;;;;;;;21.95;48.82;98144.56;5073263;28;20207;-76
2023/06/15 08:45:07;;;;;;;5.90;3.47;;;;;;;22.17;48.62;98142.09;5057979;28;20377;-75
2023/06/15 08:47:35;;;;;;;5.18;3.90;;;;;;;22.06;47.47;98149.56;5060909;28;20278;-75
2023/06/15 08:50:06;;;;;;;5.15;4.40;;;;;;;22.12;48.63;98134.84;5073460;28;20300;-76
2023/06/15 08:52:38;;;;;;;4.93;3.70;;;;;;;22.45;46.77;98142.03;5072971;28;20185;-76
2023/06/15 08:55:05;;;;;;;5.30;3.65;;;;;;;22.41;46.26;98153.69;5060170;28;20213;-76
2023/06/15 08:57:32;;;;;;;4.82;3.55;;;;;;;22.36;45.14;98143.75;5067709;28;20216;-75
2023/06/15 08:59:59;;;;;;;5.50;3.70;;;;;;;22.37;44.19;98139.13;5058132;28;20527;-75
2023/06/15 09:02:26;;;;;;;5.80;3.47;;;;;;;22.56;44.39;98137.28;5053379;28;20205;-76
2023/06/15 09:04:53;;;;;;;3.92;3.45;;;;;;;22.76;46.18;98128.81;5056080;28;20205;-76
2023/06/15 09:07:20;;;;;;;4.10;3.75;;;;;;;22.69;44.89;98136.50;5055611;28;20224;-75
2023/06/15 09:10:10;;;;;;;4.75;3.78;;;;;;;22.74;43.47;98139.16;5055767;28;20606;-76
2023/06/15 09:12:56;;;;;;;4.28;3.47;;;;;;;22.86;44.64;98131.34;5059659;28;20200;-76
2023/06/15 09:15:30;;;;;;;3.38;3.05;;;;;;;22.82;43.79;98125.72;5073199;28;20192;-76
2023/06/15 09:18:02;;;;;;;3.85;3.55;;;;;;;23.09;42.89;98130.44;5061029;28;20209;-76
2023/06/15 09:20:32;;;;;;;6.13;3.30;;;;;;;23.15;42.58;98130.03;5054668;28;20248;-77
2023/06/15 09:23:01;;;;;;;4.40;3.65;;;;;;;23.43;43.17;98129.03;5052885;28;20672;-76
2023/06/15 09:25:27;;;;;;;5.05;3.55;;;;;;;23.42;41.66;98134.78;5055889;28;20293;-75
2023/06/15 09:28:09;;;;;;;5.28;3.65;;;;;;;23.62;42.09;98134.38;5064725;28;20205;-75
2023/06/15 09:30:36;;;;;;;5.35;3.80;;;;;;;23.27;43.43;98126.88;5053283;28;20212;-76
2023/06/15 09:33:19;;;;;;;3.67;3.20;;;;;;;23.75;42.99;98125.44;5067311;28;20647;-75
2023/06/15 09:35:59;;;;;;;4.70;3.33;;;;;;;23.71;41.48;98129.88;5072931;28;20228;-76
2023/06/15 09:38:28;;;;;;;5.90;3.65;;;;;;;23.77;41.37;98118.59;5073150;28;20192;-76
2023/06/15 09:40:55;;;;;;;4.55;3.80;;;;;;;23.79;41.62;98126.47;5072733;28;20243;-75
2023/06/15 09:43:22;;;;;;;3.85;3.55;;;;;;;23.97;40.10;98122.84;5067837;28;20216;-76
2023/06/15 09:45:55;;;;;;;3.40;3.15;;;;;;;23.66;40.03;98129.97;5071939;28;20220;-75
2023/06/15 09:48:22;;;;;;;3.17;2.88;;;;;;;23.87;39.54;98125.72;5074762;28;20208;-76
2023/06/15 09:50:52;;;;;;;3.25;2.95;;;;;;;24.05;39.45;98133.00;5076985;28;20212;-76
2023/06/15 09:53:19;;;;;;;3.75;3.10;;;;;;;24.16;37.47;98128.97;5076941;28;20204;-75
2023/06/15 09:55:49;;;;;;;4.57;3.40;;;;;;;23.56;38.15;98130.97;5076635;28;20240;-76
2023/06/15 09:58:16;;;;;;;3.72;2.67;;;;;;;23.28;38.64;98123.06;5076846;28;20208;-76
2023/06/15 10:00:43;;;;;;;3.20;2.92;;;;;;;23.70;38.47;98128.25;5068705;28;20209;-75
2023/06/15 10:03:12;;;;;;;3.67;3.33;;;;;;;23.56;37.18;98124.75;5056325;28;20726;-76
2023/06/15 10:05:43;;;;;;;3.30;2.90;;;;;;;24.27;37.34;98123.00;5056684;28;20233;-75
2023/06/15 10:08:11;;;;;;;3.60;3.30;;;;;;;23.68;36.88;98125.03;5056429;28;20547;-75
2023/06/15 10:10:42;;;;;;;8.05;3.63;;;;;;;22.87;39.17;98124.81;5056626;28;20213;-75
2023/06/15 10:13:22;;;;;;;3.55;3.20;;;;;;;23.41;39.21;98125.00;5056574;28;20209;-75
2023/06/15 10:15:52;;;;;;;4.10;3.38;;;;;;;23.21;37.72;98122.66;5056334;28;20597;-76
2023/06/15 10:18:22;;;;;;;4.25;3.10;;;;;;;23.86;37.88;98129.56;5056887;28;20215;-75
2023/06/15 10:20:52;;;;;;;5.60;3.30;;;;;;;24.57;38.03;98119.63;5062710;28;20236;-75
2023/06/15 10:23:23;;;;;;;4.28;2.83;;;;;;;24.60;34.64;98124.44;5076049;28;20220;-75
2023/06/15 10:25:51;;;;;;;3.33;2.97;;;;;;;24.26;33.14;98121.41;5074735;28;20231;-76
2023/06/15 10:28:23;;;;;;;3.20;2.63;;;;;;;24.28;34.30;98118.41;5055016;28;20836;-75
2023/06/15 10:30:55;;;;;;;3.47;2.28;;;;;;;24.85;33.93;98109.47;5058048;28;20201;-76
2023/06/15 10:33:38;;;;;;;3.15;2.85;;;;;;;24.73;34.74;98118.16;5056422;28;20205;-76
2023/06/15 10:36:14;;;;;;;3.55;3.25;;;;;;;25.07;34.96;98121.16;5059289;28;20579;-75
2023/06/15 10:38:52;;;;;;;3.45;3.00;;;;;;;25.39;37.13;98120.88;5075954;28;20211;-75
2023/06/15 10:41:19;;;;;;;3.60;3.20;;;;;;;25.26;33.88;98110.88;5065732;28;20193;-75
2023/06/15 10:44:02;;;;;;;5.25;3.10;;;;;;;25.13;35.15;98110.91;5055691;28;20211;-76
2023/06/15 10:46:31;;;;;;;4.20;3.10;;;;;;;25.73;35.47;98114.78;5055778;28;20300;-76
2023/06/15 10:49:05;;;;;;;3.28;2.97;;;;;;;25.91;32.63;98119.97;5055870;28;20201;-75
2023/06/15 10:51:34;;;;;;;3.92;3.05;;;;;;;26.14;34.04;98121.50;5061138;28;20263;-75
2023/06/15 10:54:03;;;;;;;4.30;3.10;;;;;;;25.51;32.54;98123.81;5060823;28;20208;-75
2023/06/15 10:56:29;;;;;;;3.20;3.00;;;;;;;24.36;34.17;98123.09;5055009;28;20688;-76
2023/06/15 10:58:59;;;;;;;3.15;2.95;;;;;;;24.70;35.13;98124.22;5054953;28;20212;-75
2023/06/15 11:01:31;;;;;;;5.10;3.10;;;;;;;24.98;34.33;98120.28;5055589;28;20216;-75
2023/06/15 11:03:59;;;;;;;3.95;3.10;;;;;;;25.05;36.25;98125.28;5055666;28;20259;-75
2023/06/15 11:06:37;;;;;;;3.70;2.78;;;;;;;24.92;35.31;98118.78;5054843;28;20676;-75
2023/06/15 11:09:16;;;;;;;3.40;3.10;;;;;;;25.00;34.80;98122.66;5055673;28;20235;-76
2023/06/15 11:11:43;;;;;;;2.80;2.60;;;;;;;24.64;34.08;98122.72;5055302;28;20216;-75
2023/06/15 11:14:19;;;;;;;3.70;2.90;;;;;;;24.65;35.82;98120.81;5055804;28;20351;-76
2023/06/15 11:16:45;;;;;;;4.45;3.28;;;;;;;24.06;34.66;98134.63;5054996;28;20236;-76
2023/06/15 11:19:11;;;;;;;3.50;3.20;;;;;;;23.79;35.62;98124.53;5055500;28;20206;-76
2023/06/15 11:21:44;;;;;;;3.40;3.10;;;;;;;24.16;37.53;98127.03;5055403;28;20217;-75
2023/06/15 11:24:13;;;;;;;4.35;3.17;;;;;;;24.84;34.14;98114.09;5054584;28;20676;-75
2023/06/15 11:26:41;;;;;;;3.63;3.22;;;;;;;24.66;34.65;98122.44;5055653;28;20225;-75
2023/06/15 11:29:09;;;;;;;2.90;2.70;;;;;;;24.64;34.49;98108.31;5062822;28;20248;-75
2023/06/15 11:31:35;;;;;;;2.88;2.67;;;;;;;25.06;35.72;98111.34;5064056;28;20193;-76
2023/06/15 11:34:02;;;;;;;6.25;2.90;;;;;;;24.87;33.55;98109.97;5059122;28;20201;-75
2023/06/15 11:36:29;;;;;;;3.28;2.97;;;;;;;24.31;34.83;98123.19;5058480;28;20772;-76